sensor_id;sensor_type;location;lat;lon;timestamp;P1;durP1;ratioP1;P2;durP2;ratioP2
3718;SDS011;1875;52.492;6.860;2022-11-20T00:00:51;224.02;;;52.90;;
3718;SDS011;1875;52.492;6.860;2022-11-20T00:03:19;226.25;;;57.53;;
3718;SDS011;1875;52.492;6.860;2022-11-20T00:05:47;208.43;;;54.20;;
3718;SDS011;1875;52.492;6.860;2022-11-20T00:08:15;229.25;;;58.83;;
3718;SDS011;1875;52.492;6.860;2022-11-20T00:10:44;225.73;;;55.47;;
3718;SDS011;1875;52.492;6.860;2022-11-20T00:13:11;226.48;;;58.28;;
3718;SDS011;1875;52.492;6.860;2022-11-20T00:15:39;228.98;;;56.03;;
3718;SDS011;1875;52.492;6.860;2022-11-20T00:20:35;289.45;;;72.28;;
3718;SDS011;1875;52.492;6.860;2022-11-20T00:23:03;231.05;;;54.33;;
3718;SDS011;1875;52.492;6.860;2022-11-20T00:25:33;227.68;;;54.28;;
3718;SDS011;1875;52.492;6.860;2022-11-20T00:28:01;224.48;;;55.70;;
3718;SDS011;1875;52.492;6.860;2022-11-20T00:30:28;228.40;;;63.80;;
3718;SDS011;1875;52.492;6.860;2022-11-20T00:32:56;230.02;;;57.17;;
3718;SDS011;1875;52.492;6.860;2022-11-20T00:35:25;235.15;;;55.80;;
3718;SDS011;1875;52.492;6.860;2022-11-20T00:37:53;234.15;;;54.88;;
3718;SDS011;1875;52.492;6.860;2022-11-20T00:40:21;240.93;;;60.55;;
3718;SDS011;1875;52.492;6.860;2022-11-20T00:42:48;240.70;;;59.08;;
3718;SDS011;1875;52.492;6.860;2022-11-20T00:45:16;244.10;;;61.45;;
3718;SDS011;1875;52.492;6.860;2022-11-20T00:47:44;236.52;;;55.67;;
3718;SDS011;1875;52.492;6.860;2022-11-20T00:50:11;241.43;;;57.28;;
3718;SDS011;1875;52.492;6.860;2022-11-20T00:52:40;242.88;;;58.03;;
3718;SDS011;1875;52.492;6.860;2022-11-20T00:55:08;246.57;;;60.78;;
3718;SDS011;1875;52.492;6.860;2022-11-20T00:57:36;241.57;;;56.80;;
3718;SDS011;1875;52.492;6.860;2022-11-20T01:00:04;245.13;;;57.88;;
3718;SDS011;1875;52.492;6.860;2022-11-20T01:02:33;236.55;;;56.63;;
3718;SDS011;1875;52.492;6.860;2022-11-20T01:05:01;241.43;;;59.83;;
3718;SDS011;1875;52.492;6.860;2022-11-20T01:07:28;238.30;;;57.35;;
3718;SDS011;1875;52.492;6.860;2022-11-20T01:09:57;232.27;;;55.20;;
3718;SDS011;1875;52.492;6.860;2022-11-20T01:12:25;238.35;;;59.13;;
3718;SDS011;1875;52.492;6.860;2022-11-20T01:14:53;238.52;;;56.70;;
3718;SDS011;1875;52.492;6.860;2022-11-20T01:17:20;236.50;;;56.22;;
3718;SDS011;1875;52.492;6.860;2022-11-20T01:19:48;241.32;;;58.22;;
3718;SDS011;1875;52.492;6.860;2022-11-20T01:22:16;243.45;;;60.03;;
3718;SDS011;1875;52.492;6.860;2022-11-20T01:24:44;239.88;;;57.42;;
3718;SDS011;1875;52.492;6.860;2022-11-20T01:27:13;239.20;;;60.13;;
3718;SDS011;1875;52.492;6.860;2022-11-20T01:29:41;232.45;;;54.78;;
3718;SDS011;1875;52.492;6.860;2022-11-20T01:32:08;246.85;;;63.60;;
3718;SDS011;1875;52.492;6.860;2022-11-20T01:34:36;244.00;;;59.72;;
3718;SDS011;1875;52.492;6.860;2022-11-20T01:37:04;247.90;;;61.70;;
3718;SDS011;1875;52.492;6.860;2022-11-20T01:39:32;252.93;;;62.85;;
3718;SDS011;1875;52.492;6.860;2022-11-20T01:41:59;238.35;;;54.20;;
3718;SDS011;1875;52.492;6.860;2022-11-20T01:44:50;240.93;;;57.03;;
3718;SDS011;1875;52.492;6.860;2022-11-20T01:47:21;244.07;;;58.08;;
3718;SDS011;1875;52.492;6.860;2022-11-20T01:49:52;246.23;;;57.00;;
3718;SDS011;1875;52.492;6.860;2022-11-20T01:52:24;241.48;;;57.05;;
3718;SDS011;1875;52.492;6.860;2022-11-20T01:54:56;237.93;;;56.20;;
3718;SDS011;1875;52.492;6.860;2022-11-20T01:57:27;234.48;;;54.97;;
3718;SDS011;1875;52.492;6.860;2022-11-20T02:00:02;239.88;;;57.63;;
3718;SDS011;1875;52.492;6.860;2022-11-20T02:02:32;230.38;;;53.80;;
3718;SDS011;1875;52.492;6.860;2022-11-20T02:05:01;235.43;;;54.50;;
3718;SDS011;1875;52.492;6.860;2022-11-20T02:07:30;232.98;;;55.60;;
3718;SDS011;1875;52.492;6.860;2022-11-20T02:09:58;238.55;;;56.10;;
3718;SDS011;1875;52.492;6.860;2022-11-20T02:12:26;237.98;;;57.72;;
3718;SDS011;1875;52.492;6.860;2022-11-20T02:15:13;254.20;;;65.18;;
3718;SDS011;1875;52.492;6.860;2022-11-20T02:17:41;238.93;;;58.22;;
3718;SDS011;1875;52.492;6.860;2022-11-20T02:20:09;239.23;;;57.58;;
3718;SDS011;1875;52.492;6.860;2022-11-20T02:22:38;238.32;;;55.35;;
3718;SDS011;1875;52.492;6.860;2022-11-20T02:25:13;245.68;;;62.75;;
3718;SDS011;1875;52.492;6.860;2022-11-20T02:27:41;238.88;;;56.22;;
3718;SDS011;1875;52.492;6.860;2022-11-20T02:30:09;243.15;;;62.05;;
3718;SDS011;1875;52.492;6.860;2022-11-20T02:32:38;243.25;;;59.30;;
3718;SDS011;1875;52.492;6.860;2022-11-20T02:35:06;244.00;;;56.85;;
3718;SDS011;1875;52.492;6.860;2022-11-20T02:37:36;237.40;;;54.65;;
3718;SDS011;1875;52.492;6.860;2022-11-20T02:40:05;258.88;;;63.05;;
3718;SDS011;1875;52.492;6.860;2022-11-20T02:42:35;241.55;;;58.63;;
3718;SDS011;1875;52.492;6.860;2022-11-20T02:45:03;247.82;;;57.60;;
3718;SDS011;1875;52.492;6.860;2022-11-20T02:47:32;250.20;;;59.00;;
3718;SDS011;1875;52.492;6.860;2022-11-20T02:49:59;244.93;;;56.08;;
3718;SDS011;1875;52.492;6.860;2022-11-20T02:52:27;249.30;;;58.78;;
3718;SDS011;1875;52.492;6.860;2022-11-20T02:54:55;249.15;;;58.38;;
3718;SDS011;1875;52.492;6.860;2022-11-20T02:57:22;246.98;;;57.35;;
3718;SDS011;1875;52.492;6.860;2022-11-20T02:59:52;251.38;;;59.97;;
3718;SDS011;1875;52.492;6.860;2022-11-20T03:02:19;251.07;;;59.92;;
3718;SDS011;1875;52.492;6.860;2022-11-20T03:04:47;246.57;;;60.42;;
3718;SDS011;1875;52.492;6.860;2022-11-20T03:07:15;252.38;;;61.10;;
3718;SDS011;1875;52.492;6.860;2022-11-20T03:09:43;251.90;;;62.10;;
3718;SDS011;1875;52.492;6.860;2022-11-20T03:12:10;250.10;;;59.40;;
3718;SDS011;1875;52.492;6.860;2022-11-20T03:14:38;248.88;;;60.13;;
3718;SDS011;1875;52.492;6.860;2022-11-20T03:17:07;251.15;;;63.97;;
3718;SDS011;1875;52.492;6.860;2022-11-20T03:19:35;246.20;;;56.97;;
3718;SDS011;1875;52.492;6.860;2022-11-20T03:22:03;238.07;;;56.53;;
3718;SDS011;1875;52.492;6.860;2022-11-20T03:24:30;233.65;;;53.78;;
3718;SDS011;1875;52.492;6.860;2022-11-20T03:26:58;240.77;;;57.60;;
3718;SDS011;1875;52.492;6.860;2022-11-20T03:29:26;240.75;;;55.75;;
3718;SDS011;1875;52.492;6.860;2022-11-20T03:31:54;237.40;;;54.22;;
3718;SDS011;1875;52.492;6.860;2022-11-20T03:34:23;248.18;;;58.25;;
3718;SDS011;1875;52.492;6.860;2022-11-20T03:36:51;239.43;;;56.13;;
3718;SDS011;1875;52.492;6.860;2022-11-20T03:39:18;249.43;;;59.40;;
3718;SDS011;1875;52.492;6.860;2022-11-20T03:41:47;252.63;;;61.08;;
3718;SDS011;1875;52.492;6.860;2022-11-20T03:44:14;244.85;;;58.90;;
3718;SDS011;1875;52.492;6.860;2022-11-20T03:46:42;249.77;;;61.60;;
3718;SDS011;1875;52.492;6.860;2022-11-20T03:49:10;245.68;;;58.92;;
3718;SDS011;1875;52.492;6.860;2022-11-20T03:51:39;243.88;;;60.13;;
3718;SDS011;1875;52.492;6.860;2022-11-20T03:54:07;253.65;;;63.03;;
3718;SDS011;1875;52.492;6.860;2022-11-20T03:56:37;240.70;;;58.97;;
3718;SDS011;1875;52.492;6.860;2022-11-20T03:59:05;248.77;;;64.90;;
3718;SDS011;1875;52.492;6.860;2022-11-20T04:01:34;238.15;;;56.97;;
3718;SDS011;1875;52.492;6.860;2022-11-20T04:04:03;240.35;;;57.00;;
3718;SDS011;1875;52.492;6.860;2022-11-20T04:06:33;236.93;;;54.92;;
3718;SDS011;1875;52.492;6.860;2022-11-20T04:09:04;235.27;;;56.70;;
3718;SDS011;1875;52.492;6.860;2022-11-20T04:11:33;236.25;;;54.80;;
3718;SDS011;1875;52.492;6.860;2022-11-20T04:14:02;271.42;;;76.57;;
3718;SDS011;1875;52.492;6.860;2022-11-20T04:16:31;238.88;;;59.88;;
3718;SDS011;1875;52.492;6.860;2022-11-20T04:19:02;251.88;;;62.53;;
3718;SDS011;1875;52.492;6.860;2022-11-20T04:21:30;233.88;;;56.00;;
3718;SDS011;1875;52.492;6.860;2022-11-20T04:23:58;238.20;;;58.60;;
3718;SDS011;1875;52.492;6.860;2022-11-20T04:26:28;242.02;;;59.70;;
3718;SDS011;1875;52.492;6.860;2022-11-20T04:28:56;241.35;;;59.88;;
3718;SDS011;1875;52.492;6.860;2022-11-20T04:31:25;237.68;;;55.05;;
3718;SDS011;1875;52.492;6.860;2022-11-20T04:33:53;238.57;;;56.22;;
3718;SDS011;1875;52.492;6.860;2022-11-20T04:36:22;236.00;;;54.35;;
3718;SDS011;1875;52.492;6.860;2022-11-20T04:38:51;239.60;;;57.97;;
3718;SDS011;1875;52.492;6.860;2022-11-20T04:41:22;243.18;;;59.63;;
3718;SDS011;1875;52.492;6.860;2022-11-20T04:43:53;234.75;;;56.45;;
3718;SDS011;1875;52.492;6.860;2022-11-20T04:46:26;236.32;;;54.92;;
3718;SDS011;1875;52.492;6.860;2022-11-20T04:48:54;241.27;;;56.83;;
3718;SDS011;1875;52.492;6.860;2022-11-20T04:51:22;232.68;;;54.42;;
3718;SDS011;1875;52.492;6.860;2022-11-20T04:53:50;242.75;;;62.00;;
3718;SDS011;1875;52.492;6.860;2022-11-20T04:56:18;241.13;;;56.28;;
3718;SDS011;1875;52.492;6.860;2022-11-20T04:58:46;240.30;;;54.55;;
3718;SDS011;1875;52.492;6.860;2022-11-20T05:01:16;245.13;;;60.10;;
3718;SDS011;1875;52.492;6.860;2022-11-20T05:03:45;247.07;;;58.53;;
3718;SDS011;1875;52.492;6.860;2022-11-20T05:06:13;248.02;;;57.65;;
3718;SDS011;1875;52.492;6.860;2022-11-20T05:08:42;247.90;;;59.17;;
3718;SDS011;1875;52.492;6.860;2022-11-20T05:11:11;253.80;;;62.80;;
3718;SDS011;1875;52.492;6.860;2022-11-20T05:13:40;250.43;;;60.55;;
3718;SDS011;1875;52.492;6.860;2022-11-20T05:16:09;247.27;;;61.35;;
3718;SDS011;1875;52.492;6.860;2022-11-20T05:18:39;241.93;;;55.85;;
3718;SDS011;1875;52.492;6.860;2022-11-20T05:21:08;250.20;;;60.13;;
3718;SDS011;1875;52.492;6.860;2022-11-20T05:23:36;251.65;;;61.63;;
3718;SDS011;1875;52.492;6.860;2022-11-20T05:26:04;254.82;;;62.72;;
3718;SDS011;1875;52.492;6.860;2022-11-20T05:28:33;241.80;;;59.85;;
3718;SDS011;1875;52.492;6.860;2022-11-20T05:31:04;246.45;;;58.67;;
3718;SDS011;1875;52.492;6.860;2022-11-20T05:33:33;235.30;;;56.50;;
3718;SDS011;1875;52.492;6.860;2022-11-20T05:36:02;244.45;;;57.28;;
3718;SDS011;1875;52.492;6.860;2022-11-20T05:38:30;243.05;;;59.22;;
3718;SDS011;1875;52.492;6.860;2022-11-20T05:41:02;250.30;;;58.30;;
3718;SDS011;1875;52.492;6.860;2022-11-20T05:43:31;238.43;;;57.58;;
3718;SDS011;1875;52.492;6.860;2022-11-20T05:46:01;257.13;;;62.15;;
3718;SDS011;1875;52.492;6.860;2022-11-20T05:48:29;250.80;;;57.80;;
3718;SDS011;1875;52.492;6.860;2022-11-20T05:50:57;253.45;;;60.20;;
3718;SDS011;1875;52.492;6.860;2022-11-20T05:53:26;251.75;;;58.47;;
3718;SDS011;1875;52.492;6.860;2022-11-20T05:55:57;250.50;;;59.75;;
3718;SDS011;1875;52.492;6.860;2022-11-20T05:58:26;252.15;;;58.28;;
3718;SDS011;1875;52.492;6.860;2022-11-20T06:00:54;248.52;;;56.67;;
3718;SDS011;1875;52.492;6.860;2022-11-20T06:03:22;253.95;;;60.20;;
3718;SDS011;1875;52.492;6.860;2022-11-20T06:05:49;257.77;;;62.38;;
3718;SDS011;1875;52.492;6.860;2022-11-20T06:08:17;256.55;;;60.90;;
3718;SDS011;1875;52.492;6.860;2022-11-20T06:10:46;259.15;;;61.65;;
3718;SDS011;1875;52.492;6.860;2022-11-20T06:13:14;248.25;;;61.30;;
3718;SDS011;1875;52.492;6.860;2022-11-20T06:15:42;237.65;;;56.17;;
3718;SDS011;1875;52.492;6.860;2022-11-20T06:18:09;248.77;;;60.90;;
3718;SDS011;1875;52.492;6.860;2022-11-20T06:20:37;245.13;;;59.17;;
3718;SDS011;1875;52.492;6.860;2022-11-20T06:23:07;260.92;;;62.22;;
3718;SDS011;1875;52.492;6.860;2022-11-20T06:25:36;239.23;;;55.97;;
3718;SDS011;1875;52.492;6.860;2022-11-20T06:28:06;237.88;;;55.90;;
3718;SDS011;1875;52.492;6.860;2022-11-20T06:30:33;265.90;;;67.68;;
3718;SDS011;1875;52.492;6.860;2022-11-20T06:33:01;259.15;;;62.03;;
3718;SDS011;1875;52.492;6.860;2022-11-20T06:35:29;251.27;;;57.03;;
3718;SDS011;1875;52.492;6.860;2022-11-20T06:37:57;253.68;;;60.17;;
3718;SDS011;1875;52.492;6.860;2022-11-20T06:40:25;269.52;;;70.03;;
3718;SDS011;1875;52.492;6.860;2022-11-20T06:42:53;261.48;;;60.35;;
3718;SDS011;1875;52.492;6.860;2022-11-20T06:45:22;257.05;;;60.38;;
3718;SDS011;1875;52.492;6.860;2022-11-20T06:47:50;250.93;;;57.20;;
3718;SDS011;1875;52.492;6.860;2022-11-20T06:50:17;245.52;;;61.17;;
3718;SDS011;1875;52.492;6.860;2022-11-20T06:52:45;266.15;;;69.03;;
3718;SDS011;1875;52.492;6.860;2022-11-20T06:55:13;250.07;;;62.97;;
3718;SDS011;1875;52.492;6.860;2022-11-20T06:57:41;259.52;;;59.22;;
3718;SDS011;1875;52.492;6.860;2022-11-20T07:00:09;259.30;;;61.75;;
3718;SDS011;1875;52.492;6.860;2022-11-20T07:02:39;257.83;;;59.67;;
3718;SDS011;1875;52.492;6.860;2022-11-20T07:05:06;254.60;;;60.10;;
3718;SDS011;1875;52.492;6.860;2022-11-20T07:07:34;256.55;;;61.30;;
3718;SDS011;1875;52.492;6.860;2022-11-20T07:10:02;255.73;;;57.28;;
3718;SDS011;1875;52.492;6.860;2022-11-20T07:12:31;256.52;;;61.33;;
3718;SDS011;1875;52.492;6.860;2022-11-20T07:14:58;256.77;;;60.05;;
3718;SDS011;1875;52.492;6.860;2022-11-20T07:17:26;256.48;;;61.40;;
3718;SDS011;1875;52.492;6.860;2022-11-20T07:19:55;255.52;;;62.47;;
3718;SDS011;1875;52.492;6.860;2022-11-20T07:22:23;249.25;;;60.75;;
3718;SDS011;1875;52.492;6.860;2022-11-20T07:24:50;249.70;;;59.22;;
3718;SDS011;1875;52.492;6.860;2022-11-20T07:27:18;244.90;;;58.30;;
3718;SDS011;1875;52.492;6.860;2022-11-20T07:29:46;258.65;;;58.25;;
3718;SDS011;1875;52.492;6.860;2022-11-20T07:32:13;272.20;;;68.50;;
3718;SDS011;1875;52.492;6.860;2022-11-20T07:34:41;259.52;;;60.15;;
3718;SDS011;1875;52.492;6.860;2022-11-20T07:37:10;268.90;;;61.38;;
3718;SDS011;1875;52.492;6.860;2022-11-20T07:39:38;265.83;;;60.75;;
3718;SDS011;1875;52.492;6.860;2022-11-20T07:42:05;269.58;;;63.70;;
3718;SDS011;1875;52.492;6.860;2022-11-20T07:44:33;268.83;;;63.75;;
3718;SDS011;1875;52.492;6.860;2022-11-20T07:47:01;268.65;;;61.35;;
3718;SDS011;1875;52.492;6.860;2022-11-20T07:49:29;268.42;;;63.88;;
3718;SDS011;1875;52.492;6.860;2022-11-20T07:51:57;271.85;;;61.67;;
3718;SDS011;1875;52.492;6.860;2022-11-20T07:54:31;268.20;;;61.13;;
3718;SDS011;1875;52.492;6.860;2022-11-20T07:56:59;271.77;;;59.60;;
3718;SDS011;1875;52.492;6.860;2022-11-20T07:59:27;291.33;;;69.68;;
3718;SDS011;1875;52.492;6.860;2022-11-20T08:01:54;272.20;;;61.25;;
3718;SDS011;1875;52.492;6.860;2022-11-20T08:04:22;269.15;;;60.85;;
3718;SDS011;1875;52.492;6.860;2022-11-20T08:06:51;280.25;;;65.93;;
